sensor_id;sensor_type;location;lat;lon;timestamp;pressure;altitude;pressure_sealevel;temperature;humidity
73817;BME280;62146;53.232;-1.304;2022-12-10T00:00:22;99727.81;;;-1.30;100.00
73817;BME280;62146;53.232;-1.304;2022-12-10T00:02:48;99727.38;;;-1.33;100.00
73817;BME280;62146;53.232;-1.304;2022-12-10T00:05:15;99728.19;;;-1.33;100.00
73817;BME280;62146;53.232;-1.304;2022-12-10T00:07:42;99722.19;;;-1.33;100.00
73817;BME280;62146;53.232;-1.304;2022-12-10T00:10:08;99720.94;;;-1.37;100.00
73817;BME280;62146;53.232;-1.304;2022-12-10T00:12:36;99717.34;;;-1.36;100.00
73817;BME280;62146;53.232;-1.304;2022-12-10T00:15:03;99718.34;;;-1.37;100.00
73817;BME280;62146;53.232;-1.304;2022-12-10T00:17:29;99718.34;;;-1.37;100.00
73817;BME280;62146;53.232;-1.304;2022-12-10T00:19:56;99716.09;;;-1.40;100.00
73817;BME280;62146;53.232;-1.304;2022-12-10T00:22:23;99717.09;;;-1.41;100.00
73817;BME280;62146;53.232;-1.304;2022-12-10T00:24:49;99716.25;;;-1.41;100.00
73817;BME280;62146;53.232;-1.304;2022-12-10T00:27:16;99720.66;;;-1.42;100.00
73817;BME280;62146;53.232;-1.304;2022-12-10T00:29:42;99715.81;;;-1.45;100.00
73817;BME280;62146;53.232;-1.304;2022-12-10T00:32:09;99715.66;;;-1.43;100.00
73817;BME280;62146;53.232;-1.304;2022-12-10T00:34:35;99717.44;;;-1.44;100.00
73817;BME280;62146;53.232;-1.304;2022-12-10T00:37:02;99716.47;;;-1.43;100.00
73817;BME280;62146;53.232;-1.304;2022-12-10T00:39:29;99710.25;;;-1.42;100.00
73817;BME280;62146;53.232;-1.304;2022-12-10T00:41:55;99717.91;;;-1.40;100.00
73817;BME280;62146;53.232;-1.304;2022-12-10T00:44:22;99717.50;;;-1.37;100.00
73817;BME280;62146;53.232;-1.304;2022-12-10T00:46:48;99727.19;;;-1.32;100.00
73817;BME280;62146;53.232;-1.304;2022-12-10T00:49:15;99723.88;;;-1.26;100.00
73817;BME280;62146;53.232;-1.304;2022-12-10T00:51:42;99724.13;;;-1.21;100.00
73817;BME280;62146;53.232;-1.304;2022-12-10T00:54:08;99731.38;;;-1.16;100.00
73817;BME280;62146;53.232;-1.304;2022-12-10T00:56:35;99726.78;;;-1.14;100.00
73817;BME280;62146;53.232;-1.304;2022-12-10T00:59:03;99729.84;;;-1.11;100.00
73817;BME280;62146;53.232;-1.304;2022-12-10T01:01:38;99732.28;;;-1.09;100.00
73817;BME280;62146;53.232;-1.304;2022-12-10T01:04:12;99734.69;;;-1.08;100.00
73817;BME280;62146;53.232;-1.304;2022-12-10T01:06:45;99725.88;;;-1.07;100.00
73817;BME280;62146;53.232;-1.304;2022-12-10T01:09:17;99735.31;;;-1.06;100.00
73817;BME280;62146;53.232;-1.304;2022-12-10T01:11:45;99728.31;;;-1.06;100.00
73817;BME280;62146;53.232;-1.304;2022-12-10T01:14:15;99733.31;;;-1.04;100.00
73817;BME280;62146;53.232;-1.304;2022-12-10T01:16:44;99735.94;;;-1.04;100.00
73817;BME280;62146;53.232;-1.304;2022-12-10T01:19:11;99728.13;;;-1.04;100.00
73817;BME280;62146;53.232;-1.304;2022-12-10T01:21:38;99725.38;;;-1.03;100.00
73817;BME280;62146;53.232;-1.304;2022-12-10T01:24:05;99737.81;;;-0.98;100.00
73817;BME280;62146;53.232;-1.304;2022-12-10T01:26:34;99731.81;;;-0.99;100.00
73817;BME280;62146;53.232;-1.304;2022-12-10T01:29:02;99744.88;;;-0.92;100.00
73817;BME280;62146;53.232;-1.304;2022-12-10T01:31:34;99736.25;;;-0.93;100.00
73817;BME280;62146;53.232;-1.304;2022-12-10T01:34:03;99738.94;;;-0.86;100.00
73817;BME280;62146;53.232;-1.304;2022-12-10T01:36:37;99736.59;;;-0.81;100.00
73817;BME280;62146;53.232;-1.304;2022-12-10T01:39:07;99747.63;;;-0.80;100.00
73817;BME280;62146;53.232;-1.304;2022-12-10T01:46:51;99737.03;;;-0.78;100.00
73817;BME280;62146;53.232;-1.304;2022-12-10T01:49:20;99733.06;;;-0.74;100.00
73817;BME280;62146;53.232;-1.304;2022-12-10T01:51:50;99729.09;;;-0.70;100.00
73817;BME280;62146;53.232;-1.304;2022-12-10T01:54:24;99725.69;;;-0.71;100.00
73817;BME280;62146;53.232;-1.304;2022-12-10T01:57:06;99725.25;;;-0.74;100.00
73817;BME280;62146;53.232;-1.304;2022-12-10T01:59:35;99730.81;;;-0.77;100.00
73817;BME280;62146;53.232;-1.304;2022-12-10T02:02:17;99738.03;;;-0.79;100.00
73817;BME280;62146;53.232;-1.304;2022-12-10T02:13:18;99736.09;;;-0.91;100.00
73817;BME280;62146;53.232;-1.304;2022-12-10T02:15:51;99726.84;;;-0.94;100.00
73817;BME280;62146;53.232;-1.304;2022-12-10T02:18:27;99729.44;;;-0.94;100.00
73817;BME280;62146;53.232;-1.304;2022-12-10T02:20:57;99726.41;;;-0.97;100.00
73817;BME280;62146;53.232;-1.304;2022-12-10T02:23:31;99727.22;;;-0.97;100.00
73817;BME280;62146;53.232;-1.304;2022-12-10T02:26:04;99724.97;;;-1.00;100.00
73817;BME280;62146;53.232;-1.304;2022-12-10T02:31:33;99722.13;;;-1.05;100.00
73817;BME280;62146;53.232;-1.304;2022-12-10T02:34:03;99725.09;;;-1.08;100.00
73817;BME280;62146;53.232;-1.304;2022-12-10T02:36:34;99726.06;;;-1.08;100.00
73817;BME280;62146;53.232;-1.304;2022-12-10T02:39:06;99718.63;;;-1.11;100.00
73817;BME280;62146;53.232;-1.304;2022-12-10T02:41:35;99717.22;;;-1.14;100.00
73817;BME280;62146;53.232;-1.304;2022-12-10T02:44:07;99717.38;;;-1.15;100.00
73817;BME280;62146;53.232;-1.304;2022-12-10T02:46:36;99723.59;;;-1.16;100.00
73817;BME280;62146;53.232;-1.304;2022-12-10T02:49:06;99711.38;;;-1.16;100.00
73817;BME280;62146;53.232;-1.304;2022-12-10T02:51:33;99721.00;;;-1.16;100.00
73817;BME280;62146;53.232;-1.304;2022-12-10T02:54:05;99725.53;;;-1.18;100.00
73817;BME280;62146;53.232;-1.304;2022-12-10T02:56:45;99720.34;;;-1.18;100.00
73817;BME280;62146;53.232;-1.304;2022-12-10T02:59:16;99722.34;;;-1.20;100.00
73817;BME280;62146;53.232;-1.304;2022-12-10T03:02:06;99719.09;;;-1.22;100.00
73817;BME280;62146;53.232;-1.304;2022-12-10T03:07:15;99714.66;;;-1.28;100.00
73817;BME280;62146;53.232;-1.304;2022-12-10T03:09:53;99714.00;;;-1.30;100.00
73817;BME280;62146;53.232;-1.304;2022-12-10T03:12:28;99712.41;;;-1.31;100.00
73817;BME280;62146;53.232;-1.304;2022-12-10T03:15:00;99713.16;;;-1.37;100.00
73817;BME280;62146;53.232;-1.304;2022-12-10T03:17:31;99715.09;;;-1.39;100.00
73817;BME280;62146;53.232;-1.304;2022-12-10T03:19:59;99721.28;;;-1.40;100.00
73817;BME280;62146;53.232;-1.304;2022-12-10T03:22:28;99726.50;;;-1.40;100.00
73817;BME280;62146;53.232;-1.304;2022-12-10T03:24:57;99719.50;;;-1.39;100.00
73817;BME280;62146;53.232;-1.304;2022-12-10T03:27:25;99728.75;;;-1.37;100.00
73817;BME280;62146;53.232;-1.304;2022-12-10T03:29:54;99721.56;;;-1.35;100.00
73817;BME280;62146;53.232;-1.304;2022-12-10T03:32:25;99723.16;;;-1.34;100.00
73817;BME280;62146;53.232;-1.304;2022-12-10T03:34:54;99720.56;;;-1.34;100.00
73817;BME280;62146;53.232;-1.304;2022-12-10T03:37:23;99722.81;;;-1.31;100.00
73817;BME280;62146;53.232;-1.304;2022-12-10T03:39:50;99720.84;;;-1.29;100.00
73817;BME280;62146;53.232;-1.304;2022-12-10T03:42:17;99717.06;;;-1.27;100.00
73817;BME280;62146;53.232;-1.304;2022-12-10T03:44:43;99717.84;;;-1.26;100.00
73817;BME280;62146;53.232;-1.304;2022-12-10T03:47:12;99715.25;;;-1.26;100.00
73817;BME280;62146;53.232;-1.304;2022-12-10T03:49:41;99713.75;;;-1.21;100.00
73817;BME280;62146;53.232;-1.304;2022-12-10T03:52:09;99715.59;;;-1.15;100.00
73817;BME280;62146;53.232;-1.304;2022-12-10T03:54:35;99717.63;;;-1.10;100.00
73817;BME280;62146;53.232;-1.304;2022-12-10T03:57:02;99717.13;;;-1.06;100.00
73817;BME280;62146;53.232;-1.304;2022-12-10T03:59:28;99717.56;;;-1.03;100.00
73817;BME280;62146;53.232;-1.304;2022-12-10T04:01:55;99721.41;;;-0.99;100.00
73817;BME280;62146;53.232;-1.304;2022-12-10T04:04:22;99718.25;;;-0.94;100.00
73817;BME280;62146;53.232;-1.304;2022-12-10T04:06:48;99716.09;;;-0.91;100.00
73817;BME280;62146;53.232;-1.304;2022-12-10T04:09:15;99707.91;;;-0.88;100.00
73817;BME280;62146;53.232;-1.304;2022-12-10T04:11:43;99707.38;;;-0.83;100.00
73817;BME280;62146;53.232;-1.304;2022-12-10T04:14:11;99702.56;;;-0.80;100.00
73817;BME280;62146;53.232;-1.304;2022-12-10T04:16:57;99706.44;;;-0.76;100.00
73817;BME280;62146;53.232;-1.304;2022-12-10T04:19:24;99714.66;;;-0.73;100.00
73817;BME280;62146;53.232;-1.304;2022-12-10T04:21:51;99711.88;;;-0.71;100.00
73817;BME280;62146;53.232;-1.304;2022-12-10T04:24:37;99710.31;;;-0.66;100.00
73817;BME280;62146;53.232;-1.304;2022-12-10T04:27:25;99702.97;;;-0.62;100.00
73817;BME280;62146;53.232;-1.304;2022-12-10T04:29:53;99706.78;;;-0.58;100.00
73817;BME280;62146;53.232;-1.304;2022-12-10T04:32:21;99695.59;;;-0.59;100.00
73817;BME280;62146;53.232;-1.304;2022-12-10T04:34:48;99694.41;;;-0.56;100.00
73817;BME280;62146;53.232;-1.304;2022-12-10T04:37:15;99695.38;;;-0.57;100.00
73817;BME280;62146;53.232;-1.304;2022-12-10T04:39:41;99692.41;;;-0.54;100.00
73817;BME280;62146;53.232;-1.304;2022-12-10T04:42:08;99690.63;;;-0.54;100.00
73817;BME280;62146;53.232;-1.304;2022-12-10T04:44:35;99694.66;;;-0.52;100.00
73817;BME280;62146;53.232;-1.304;2022-12-10T04:47:03;99686.59;;;-0.56;100.00
73817;BME280;62146;53.232;-1.304;2022-12-10T04:49:30;99687.66;;;-0.51;100.00
73817;BME280;62146;53.232;-1.304;2022-12-10T04:51:57;99681.84;;;-0.53;100.00
73817;BME280;62146;53.232;-1.304;2022-12-10T04:54:24;99686.41;;;-0.55;100.00
73817;BME280;62146;53.232;-1.304;2022-12-10T04:56:51;99676.81;;;-0.54;100.00
73817;BME280;62146;53.232;-1.304;2022-12-10T04:59:18;99677.81;;;-0.55;100.00
73817;BME280;62146;53.232;-1.304;2022-12-10T05:01:44;99688.22;;;-0.55;100.00
73817;BME280;62146;53.232;-1.304;2022-12-10T05:04:13;99684.97;;;-0.57;100.00
73817;BME280;62146;53.232;-1.304;2022-12-10T05:06:40;99684.00;;;-0.56;100.00
73817;BME280;62146;53.232;-1.304;2022-12-10T05:09:07;99691.63;;;-0.55;100.00
73817;BME280;62146;53.232;-1.304;2022-12-10T05:11:34;99688.00;;;-0.54;100.00
73817;BME280;62146;53.232;-1.304;2022-12-10T05:14:01;99694.84;;;-0.53;100.00
73817;BME280;62146;53.232;-1.304;2022-12-10T05:16:29;99690.25;;;-0.51;100.00
73817;BME280;62146;53.232;-1.304;2022-12-10T05:18:57;99684.69;;;-0.48;100.00
73817;BME280;62146;53.232;-1.304;2022-12-10T05:21:26;99682.88;;;-0.48;100.00
73817;BME280;62146;53.232;-1.304;2022-12-10T05:24:17;99680.50;;;-0.43;100.00
73817;BME280;62146;53.232;-1.304;2022-12-10T05:26:44;99675.72;;;-0.39;100.00
73817;BME280;62146;53.232;-1.304;2022-12-10T05:29:12;99678.75;;;-0.36;100.00
73817;BME280;62146;53.232;-1.304;2022-12-10T05:31:39;99692.00;;;-0.31;100.00
73817;BME280;62146;53.232;-1.304;2022-12-10T05:34:05;99680.63;;;-0.30;100.00
73817;BME280;62146;53.232;-1.304;2022-12-10T05:36:34;99688.03;;;-0.27;100.00
73817;BME280;62146;53.232;-1.304;2022-12-10T05:39:01;99687.50;;;-0.23;100.00
73817;BME280;62146;53.232;-1.304;2022-12-10T05:41:30;99681.47;;;-0.23;100.00
73817;BME280;62146;53.232;-1.304;2022-12-10T05:43:58;99684.31;;;-0.18;100.00
73817;BME280;62146;53.232;-1.304;2022-12-10T05:46:30;99677.47;;;-0.19;100.00
73817;BME280;62146;53.232;-1.304;2022-12-10T05:48:57;99681.53;;;-0.17;100.00
73817;BME280;62146;53.232;-1.304;2022-12-10T05:51:29;99681.94;;;-0.13;100.00
73817;BME280;62146;53.232;-1.304;2022-12-10T05:53:58;99676.53;;;-0.12;100.00
73817;BME280;62146;53.232;-1.304;2022-12-10T05:56:25;99684.34;;;-0.12;100.00
73817;BME280;62146;53.232;-1.304;2022-12-10T05:58:54;99678.16;;;-0.11;100.00
73817;BME280;62146;53.232;-1.304;2022-12-10T06:01:24;99679.97;;;-0.11;100.00
73817;BME280;62146;53.232;-1.304;2022-12-10T06:03:51;99681.38;;;-0.09;100.00
73817;BME280;62146;53.232;-1.304;2022-12-10T06:06:23;99679.56;;;-0.08;100.00
73817;BME280;62146;53.232;-1.304;2022-12-10T06:08:50;99678.03;;;-0.03;100.00
73817;BME280;62146;53.232;-1.304;2022-12-10T06:11:17;99680.63;;;-0.03;100.00
73817;BME280;62146;53.232;-1.304;2022-12-10T06:13:43;99670.81;;;-0.01;100.00
73817;BME280;62146;53.232;-1.304;2022-12-10T06:16:11;99678.03;;;-0.03;100.00
73817;BME280;62146;53.232;-1.304;2022-12-10T06:18:38;99675.22;;;-0.01;100.00
73817;BME280;62146;53.232;-1.304;2022-12-10T06:21:07;99676.22;;;-0.02;100.00
73817;BME280;62146;53.232;-1.304;2022-12-10T06:23:35;99674.22;;;-0.01;100.00
73817;BME280;62146;53.232;-1.304;2022-12-10T06:26:13;99676.00;;;-0.01;100.00
73817;BME280;62146;53.232;-1.304;2022-12-10T06:28:41;99682.03;;;-0.01;100.00
73817;BME280;62146;53.232;-1.304;2022-12-10T06:31:08;99683.22;;;-0.03;100.00
73817;BME280;62146;53.232;-1.304;2022-12-10T06:33:35;99682.59;;;-0.05;100.00
73817;BME280;62146;53.232;-1.304;2022-12-10T06:36:06;99681.81;;;-0.05;100.00
73817;BME280;62146;53.232;-1.304;2022-12-10T06:38:33;99679.19;;;-0.05;100.00
73817;BME280;62146;53.232;-1.304;2022-12-10T06:41:00;99684.03;;;-0.02;100.00
73817;BME280;62146;53.232;-1.304;2022-12-10T06:43:29;99681.59;;;-0.04;100.00
73817;BME280;62146;53.232;-1.304;2022-12-10T06:45:56;99679.19;;;-0.05;100.00
73817;BME280;62146;53.232;-1.304;2022-12-10T06:48:23;99683.03;;;-0.01;100.00
73817;BME280;62146;53.232;-1.304;2022-12-10T06:50:49;99680.84;;;0.02;100.00
73817;BME280;62146;53.232;-1.304;2022-12-10T06:53:16;99690.69;;;0.06;100.00
73817;BME280;62146;53.232;-1.304;2022-12-10T06:55:42;99684.91;;;0.11;100.00
73817;BME280;62146;53.232;-1.304;2022-12-10T06:58:09;99688.75;;;0.15;100.00
73817;BME280;62146;53.232;-1.304;2022-12-10T07:00:35;99685.75;;;0.18;100.00
73817;BME280;62146;53.232;-1.304;2022-12-10T07:03:02;99678.56;;;0.20;100.00
73817;BME280;62146;53.232;-1.304;2022-12-10T07:05:28;99683.56;;;0.21;100.00
73817;BME280;62146;53.232;-1.304;2022-12-10T07:07:55;99682.78;;;0.21;100.00
73817;BME280;62146;53.232;-1.304;2022-12-10T07:10:22;99686.56;;;0.18;100.00
73817;BME280;62146;53.232;-1.304;2022-12-10T07:12:48;99687.75;;;0.16;100.00
73817;BME280;62146;53.232;-1.304;2022-12-10T07:15:15;99691.34;;;0.15;100.00
73817;BME280;62146;53.232;-1.304;2022-12-10T07:17:41;99688.56;;;0.16;100.00
73817;BME280;62146;53.232;-1.304;2022-12-10T07:20:08;99684.97;;;0.17;100.00
73817;BME280;62146;53.232;-1.304;2022-12-10T07:22:36;99686.56;;;0.18;100.00
73817;BME280;62146;53.232;-1.304;2022-12-10T07:25:02;99694.16;;;0.13;100.00
73817;BME280;62146;53.232;-1.304;2022-12-10T07:27:29;99693.16;;;0.14;100.00
73817;BME280;62146;53.232;-1.304;2022-12-10T07:29:57;99696.75;;;0.13;100.00
73817;BME280;62146;53.232;-1.304;2022-12-10T07:32:24;99697.75;;;0.12;100.00
73817;BME280;62146;53.232;-1.304;2022-12-10T07:34:50;99685.53;;;0.13;100.00
73817;BME280;62146;53.232;-1.304;2022-12-10T07:37:17;99696.75;;;0.13;100.00
73817;BME280;62146;53.232;-1.304;2022-12-10T07:39:43;99699.16;;;0.15;100.00
73817;BME280;62146;53.232;-1.304;2022-12-10T07:42:11;99692.16;;;0.15;100.00
73817;BME280;62146;53.232;-1.304;2022-12-10T07:44:37;99693.16;;;0.14;100.00
73817;BME280;62146;53.232;-1.304;2022-12-10T07:47:04;99691.56;;;0.13;100.00
73817;BME280;62146;53.232;-1.304;2022-12-10T07:49:31;99702.78;;;0.14;100.00
73817;BME280;62146;53.232;-1.304;2022-12-10T07:51:57;99706.38;;;0.13;100.00
73817;BME280;62146;53.232;-1.304;2022-12-10T07:54:24;99703.78;;;0.13;100.00
73817;BME280;62146;53.232;-1.304;2022-12-10T07:56:50;99707.19;;;0.13;100.00
73817;BME280;62146;53.232;-1.304;2022-12-10T07:59:17;99708.63;;;0.16;100.00
73817;BME280;62146;53.232;-1.304;2022-12-10T08:01:43;99707.59;;;0.17;100.00
73817;BME280;62146;53.232;-1.304;2022-12-10T08:04:10;99707.41;;;0.18;100.00
73817;BME280;62146;53.232;-1.304;2022-12-10T08:06:36;99711.00;;;0.17;100.00
73817;BME280;62146;53.232;-1.304;2022-12-10T08:09:03;99710.81;;;0.19;100.00
73817;BME280;62146;53.232;-1.304;2022-12-10T08:11:29;99716.66;;;0.21;100.00
73817;BME280;62146;53.232;-1.304;2022-12-10T08:13:57;99711.25;;;0.22;100.00
73817;BME280;62146;53.232;-1.304;2022-12-10T08:16:25;99715.06;;;0.26;100.00
73817;BME280;62146;53.232;-1.304;2022-12-10T08:18:54;99719.09;;;0.28;100.00
73817;BME280;62146;53.232;-1.304;2022-12-10T08:21:23;99714.50;;;0.30;100.00
73817;BME280;62146;53.232;-1.304;2022-12-10T08:23:50;99711.88;;;0.30;100.00
73817;BME280;62146;53.232;-1.304;2022-12-10T08:26:25;99716.94;;;0.32;100.00
73817;BME280;62146;53.232;-1.304;2022-12-10T08:28:53;99721.94;;;0.33;100.00
73817;BME280;62146;53.232;-1.304;2022-12-10T08:31:21;99725.97;;;0.36;100.00
73817;BME280;62146;53.232;-1.304;2022-12-10T08:33:48;99729.19;;;0.38;100.00
73817;BME280;62146;53.232;-1.304;2022-12-10T08:36:16;99733.00;;;0.42;100.00
73817;BME280;62146;53.232;-1.304;2022-12-10T08:38:44;99743.06;;;0.45;100.00
73817;BME280;62146;53.232;-1.304;2022-12-10T08:41:16;99742.69;;;0.48;100.00
73817;BME280;62146;53.232;-1.304;2022-12-10T08:43:43;99740.09;;;0.48;100.00
73817;BME280;62146;53.232;-1.304;2022-12-10T08:46:11;99736.09;;;0.52;100.00
73817;BME280;62146;53.232;-1.304;2022-12-10T08:48:40;99736.88;;;0.52;100.00
73817;BME280;62146;53.232;-1.304;2022-12-10T08:51:07;99735.34;;;0.57;100.00
73817;BME280;62146;53.232;-1.304;2022-12-10T08:53:35;99736.94;;;0.58;100.00
73817;BME280;62146;53.232;-1.304;2022-12-10T08:56:01;99729.72;;;0.60;100.00
73817;BME280;62146;53.232;-1.304;2022-12-10T08:58:28;99731.94;;;0.63;100.00
73817;BME280;62146;53.232;-1.304;2022-12-10T09:00:54;99735.78;;;0.67;100.00
73817;BME280;62146;53.232;-1.304;2022-12-10T09:03:22;99734.75;;;0.68;100.00
73817;BME280;62146;53.232;-1.304;2022-12-10T09:05:48;99718.13;;;0.69;100.00
73817;BME280;62146;53.232;-1.304;2022-12-10T09:08:15;99734.22;;;0.73;100.00
73817;BME280;62146;53.232;-1.304;2022-12-10T09:10:42;99726.97;;;0.75;100.00
73817;BME280;62146;53.232;-1.304;2022-12-10T09:13:08;99730.81;;;0.79;100.00
73817;BME280;62146;53.232;-1.304;2022-12-10T09:15:35;99735.84;;;0.80;100.00
73817;BME280;62146;53.232;-1.304;2022-12-10T09:18:02;99736.25;;;0.83;100.00
73817;BME280;62146;53.232;-1.304;2022-12-10T09:20:28;99736.66;;;0.87;100.00
73817;BME280;62146;53.232;-1.304;2022-12-10T09:22:55;99731.06;;;0.90;100.00
73817;BME280;62146;53.232;-1.304;2022-12-10T09:25:21;99740.09;;;0.94;100.00
73817;BME280;62146;53.232;-1.304;2022-12-10T09:27:48;99743.34;;;0.96;100.00
73817;BME280;62146;53.232;-1.304;2022-12-10T09:30:15;99744.75;;;0.98;100.00
73817;BME280;62146;53.232;-1.304;2022-12-10T09:32:41;99735.50;;;1.02;100.00
73817;BME280;62146;53.232;-1.304;2022-12-10T09:35:08;99734.34;;;1.05;100.00
73817;BME280;62146;53.232;-1.304;2022-12-10T09:37:34;99737.53;;;1.06;100.00
73817;BME280;62146;53.232;-1.304;2022-12-10T09:40:02;99745.78;;;1.10;100.00
73817;BME280;62146;53.232;-1.304;2022-12-10T09:42:50;99747.22;;;1.12;100.00
73817;BME280;62146;53.232;-1.304;2022-12-10T09:45:40;99751.25;;;1.15;100.00
73817;BME280;62146;53.232;-1.304;2022-12-10T09:53:29;99750.44;;;1.21;100.00
73817;BME280;62146;53.232;-1.304;2022-12-10T09:55:58;99758.09;;;1.29;100.00
73817;BME280;62146;53.232;-1.304;2022-12-10T09:58:26;99752.47;;;1.32;100.00
73817;BME280;62146;53.232;-1.304;2022-12-10T10:01:02;99756.53;;;1.34;100.00
73817;BME280;62146;53.232;-1.304;2022-12-10T10:03:38;99757.13;;;1.36;100.00
73817;BME280;62146;53.232;-1.304;2022-12-10T10:06:10;99748.09;;;1.38;100.00
73817;BME280;62146;53.232;-1.304;2022-12-10T10:08:44;99753.91;;;1.40;100.00
73817;BME280;62146;53.232;-1.304;2022-12-10T10:11:18;99760.56;;;1.43;100.00
73817;BME280;62146;53.232;-1.304;2022-12-10T10:13:54;99762.16;;;1.44;100.00
73817;BME280;62146;53.232;-1.304;2022-12-10T10:16:29;99763.38;;;1.48;100.00
73817;BME280;62146;53.232;-1.304;2022-12-10T10:21:50;99776.44;;;1.54;100.00
73817;BME280;62146;53.232;-1.304;2022-12-10T10:24:20;99775.44;;;1.55;100.00
73817;BME280;62146;53.232;-1.304;2022-12-10T10:26:48;99767.44;;;1.57;100.00
73817;BME280;62146;53.232;-1.304;2022-12-10T10:29:18;99769.63;;;1.59;100.00
73817;BME280;62146;53.232;-1.304;2022-12-10T10:31:46;99764.22;;;1.61;100.00
73817;BME280;62146;53.232;-1.304;2022-12-10T10:34:19;99762.00;;;1.64;100.00
73817;BME280;62146;53.232;-1.304;2022-12-10T10:36:46;99763.00;;;1.70;100.00
73817;BME280;62146;53.232;-1.304;2022-12-10T10:41:43;99760.03;;;1.79;100.00
73817;BME280;62146;53.232;-1.304;2022-12-10T10:44:16;99765.63;;;1.83;100.00
73817;BME280;62146;53.232;-1.304;2022-12-10T10:46:45;99756.00;;;1.83;100.00
73817;BME280;62146;53.232;-1.304;2022-12-10T10:51:52;99763.44;;;1.92;100.00
73817;BME280;62146;53.232;-1.304;2022-12-10T10:54:40;99748.56;;;1.99;100.00
73817;BME280;62146;53.232;-1.304;2022-12-10T10:59:53;99751.00;;;2.13;100.00
73817;BME280;62146;53.232;-1.304;2022-12-10T11:02:33;99756.00;;;2.21;100.00
73817;BME280;62146;53.232;-1.304;2022-12-10T11:05:08;99750.75;;;2.28;100.00
73817;BME280;62146;53.232;-1.304;2022-12-10T11:07:42;99748.53;;;2.38;100.00
73817;BME280;62146;53.232;-1.304;2022-12-10T11:10:20;99742.06;;;2.46;100.00
73817;BME280;62146;53.232;-1.304;2022-12-10T11:13:04;99743.50;;;2.55;100.00
73817;BME280;62146;53.232;-1.304;2022-12-10T11:15:39;99747.66;;;2.63;100.00
73817;BME280;62146;53.232;-1.304;2022-12-10T11:18:35;99747.66;;;2.75;100.00
73817;BME280;62146;53.232;-1.304;2022-12-10T11:21:16;99746.22;;;2.86;100.00
73817;BME280;62146;53.232;-1.304;2022-12-10T11:23:46;99747.78;;;2.93;100.00
73817;BME280;62146;53.232;-1.304;2022-12-10T11:31:15;99755.34;;;3.14;100.00
73817;BME280;62146;53.232;-1.304;2022-12-10T11:33:55;99759.97;;;3.18;100.00
73817;BME280;62146;53.232;-1.304;2022-12-10T11:36:53;99758.31;;;3.23;100.00
73817;BME280;62146;53.232;-1.304;2022-12-10T11:55:50;99741.25;;;3.51;100.00
73817;BME280;62146;53.232;-1.304;2022-12-10T11:59:27;99736.59;;;3.53;100.00
73817;BME280;62146;53.232;-1.304;2022-12-10T12:07:01;99736.31;;;3.68;100.00
73817;BME280;62146;53.232;-1.304;2022-12-10T12:09:51;99729.84;;;3.70;100.00
73817;BME280;62146;53.232;-1.304;2022-12-10T12:15:02;99735.25;;;3.75;100.00
73817;BME280;62146;53.232;-1.304;2022-12-10T12:17:38;99736.19;;;3.80;100.00
73817;BME280;62146;53.232;-1.304;2022-12-10T12:20:27;99736.97;;;3.87;100.00
73817;BME280;62146;53.232;-1.304;2022-12-10T12:23:15;99726.03;;;3.97;100.00
73817;BME280;62146;53.232;-1.304;2022-12-10T12:25:47;99725.53;;;4.06;100.00
73817;BME280;62146;53.232;-1.304;2022-12-10T12:28:27;99721.25;;;4.11;100.00
73817;BME280;62146;53.232;-1.304;2022-12-10T12:31:18;99728.63;;;4.21;100.00
73817;BME280;62146;53.232;-1.304;2022-12-10T12:33:53;99727.97;;;4.25;100.00
73817;BME280;62146;53.232;-1.304;2022-12-10T12:36:27;99725.16;;;4.27;100.00
73817;BME280;62146;53.232;-1.304;2022-12-10T12:49:55;99722.31;;;4.28;100.00
73817;BME280;62146;53.232;-1.304;2022-12-10T12:56:07;99726.53;;;4.29;100.00
73817;BME280;62146;53.232;-1.304;2022-12-10T13:00:49;99723.25;;;4.33;100.00
73817;BME280;62146;53.232;-1.304;2022-12-10T13:03:32;99728.00;;;4.43;100.00
73817;BME280;62146;53.232;-1.304;2022-12-10T13:06:19;99729.19;;;4.47;100.00
73817;BME280;62146;53.232;-1.304;2022-12-10T13:11:36;99715.19;;;4.53;100.00
73817;BME280;62146;53.232;-1.304;2022-12-10T13:22:39;99726.78;;;4.63;100.00
73817;BME280;62146;53.232;-1.304;2022-12-10T13:25:14;99725.31;;;4.67;100.00
73817;BME280;62146;53.232;-1.304;2022-12-10T13:27:55;99729.56;;;4.68;100.00
73817;BME280;62146;53.232;-1.304;2022-12-10T13:30:31;99728.09;;;4.72;100.00
73817;BME280;62146;53.232;-1.304;2022-12-10T13:33:18;99729.72;;;4.73;100.00
73817;BME280;62146;53.232;-1.304;2022-12-10T13:35:56;99728.69;;;4.74;100.00
73817;BME280;62146;53.232;-1.304;2022-12-10T13:38:29;99735.34;;;4.76;100.00
73817;BME280;62146;53.232;-1.304;2022-12-10T13:41:04;99722.41;;;4.75;100.00
73817;BME280;62146;53.232;-1.304;2022-12-10T13:43:58;99723.22;;;4.75;100.00
73817;BME280;62146;53.232;-1.304;2022-12-10T13:49:29;99716.13;;;4.76;100.00
73817;BME280;62146;53.232;-1.304;2022-12-10T13:51:57;99709.09;;;4.76;100.00
73817;BME280;62146;53.232;-1.304;2022-12-10T14:08:10;99713.72;;;4.74;100.00
73817;BME280;62146;53.232;-1.304;2022-12-10T14:10:40;99717.97;;;4.75;100.00
73817;BME280;62146;53.232;-1.304;2022-12-10T14:13:11;99719.59;;;4.76;100.00
73817;BME280;62146;53.232;-1.304;2022-12-10T14:15:39;99714.09;;;4.78;100.00
73817;BME280;62146;53.232;-1.304;2022-12-10T14:18:12;99720.16;;;4.78;100.00
73817;BME280;62146;53.232;-1.304;2022-12-10T14:20:46;99722.53;;;4.79;100.00
73817;BME280;62146;53.232;-1.304;2022-12-10T14:26:26;99731.25;;;4.80;100.00
73817;BME280;62146;53.232;-1.304;2022-12-10T14:31:29;99734.06;;;4.79;100.00
73817;BME280;62146;53.232;-1.304;2022-12-10T14:34:11;99727.47;;;4.76;100.00
73817;BME280;62146;53.232;-1.304;2022-12-10T14:36:48;99724.25;;;4.74;100.00
73817;BME280;62146;53.232;-1.304;2022-12-10T14:39:26;99734.97;;;4.73;100.00
73817;BME280;62146;53.232;-1.304;2022-12-10T14:41:57;99733.34;;;4.72;100.00
73817;BME280;62146;53.232;-1.304;2022-12-10T14:44:24;99742.25;;;4.71;100.00
73817;BME280;62146;53.232;-1.304;2022-12-10T14:46:51;99738.03;;;4.70;100.00
73817;BME280;62146;53.232;-1.304;2022-12-10T14:49:28;99740.06;;;4.68;100.00
73817;BME280;62146;53.232;-1.304;2022-12-10T14:51:59;99741.31;;;4.65;100.00
73817;BME280;62146;53.232;-1.304;2022-12-10T14:54:33;99745.97;;;4.63;100.00
73817;BME280;62146;53.232;-1.304;2022-12-10T14:57:05;99749.63;;;4.62;100.00